sensor_id;sensor_type;location;lat;lon;timestamp;P1;durP1;ratioP1;P2;durP2;ratioP2
46110;SDS011;31849;55.992;37.252;2022-12-18T00:03:17;9.93;;;6.40;;
46110;SDS011;31849;55.992;37.252;2022-12-18T00:08:20;11.13;;;6.40;;
46110;SDS011;31849;55.992;37.252;2022-12-18T00:13:24;12.10;;;7.10;;
46110;SDS011;31849;55.992;37.252;2022-12-18T00:18:29;10.37;;;6.50;;
46110;SDS011;31849;55.992;37.252;2022-12-18T00:23:33;10.77;;;6.27;;
46110;SDS011;31849;55.992;37.252;2022-12-18T00:28:38;10.33;;;6.70;;
46110;SDS011;31849;55.992;37.252;2022-12-18T00:33:44;11.53;;;7.17;;
46110;SDS011;31849;55.992;37.252;2022-12-18T00:38:50;11.00;;;6.90;;
46110;SDS011;31849;55.992;37.252;2022-12-18T00:43:54;11.57;;;6.53;;
46110;SDS011;31849;55.992;37.252;2022-12-18T00:48:59;13.03;;;6.60;;
46110;SDS011;31849;55.992;37.252;2022-12-18T00:54:02;9.50;;;6.77;;
46110;SDS011;31849;55.992;37.252;2022-12-18T00:59:06;10.80;;;6.80;;
46110;SDS011;31849;55.992;37.252;2022-12-18T01:04:11;11.73;;;7.00;;
46110;SDS011;31849;55.992;37.252;2022-12-18T01:09:15;10.37;;;6.60;;
46110;SDS011;31849;55.992;37.252;2022-12-18T01:14:18;10.20;;;6.53;;
46110;SDS011;31849;55.992;37.252;2022-12-18T01:19:23;11.43;;;6.70;;
46110;SDS011;31849;55.992;37.252;2022-12-18T01:24:27;11.20;;;7.60;;
46110;SDS011;31849;55.992;37.252;2022-12-18T01:29:31;10.50;;;6.27;;
46110;SDS011;31849;55.992;37.252;2022-12-18T01:34:36;10.10;;;6.80;;
46110;SDS011;31849;55.992;37.252;2022-12-18T01:39:40;10.23;;;5.77;;
46110;SDS011;31849;55.992;37.252;2022-12-18T01:44:57;9.63;;;6.33;;
46110;SDS011;31849;55.992;37.252;2022-12-18T01:50:09;9.77;;;6.30;;
46110;SDS011;31849;55.992;37.252;2022-12-18T01:55:15;21.07;;;7.60;;
46110;SDS011;31849;55.992;37.252;2022-12-18T02:00:22;10.67;;;6.37;;
46110;SDS011;31849;55.992;37.252;2022-12-18T02:05:31;12.05;;;5.82;;
46110;SDS011;31849;55.992;37.252;2022-12-18T02:10:45;10.50;;;5.87;;
46110;SDS011;31849;55.992;37.252;2022-12-18T02:15:55;10.40;;;5.83;;
46110;SDS011;31849;55.992;37.252;2022-12-18T02:21:08;10.03;;;5.90;;
46110;SDS011;31849;55.992;37.252;2022-12-18T02:26:19;9.23;;;5.60;;
46110;SDS011;31849;55.992;37.252;2022-12-18T02:31:27;12.03;;;5.97;;
46110;SDS011;31849;55.992;37.252;2022-12-18T02:36:34;9.10;;;5.43;;
46110;SDS011;31849;55.992;37.252;2022-12-18T02:41:42;8.53;;;5.50;;
46110;SDS011;31849;55.992;37.252;2022-12-18T02:46:48;10.53;;;6.23;;
46110;SDS011;31849;55.992;37.252;2022-12-18T02:51:55;8.47;;;4.80;;
46110;SDS011;31849;55.992;37.252;2022-12-18T02:57:10;9.30;;;5.03;;
46110;SDS011;31849;55.992;37.252;2022-12-18T03:07:28;9.73;;;5.67;;
46110;SDS011;31849;55.992;37.252;2022-12-18T03:12:41;8.67;;;4.97;;
46110;SDS011;31849;55.992;37.252;2022-12-18T03:17:52;7.40;;;4.70;;
46110;SDS011;31849;55.992;37.252;2022-12-18T03:22:59;12.83;;;5.30;;
46110;SDS011;31849;55.992;37.252;2022-12-18T03:28:09;8.63;;;5.40;;
46110;SDS011;31849;55.992;37.252;2022-12-18T03:33:17;9.23;;;5.47;;
46110;SDS011;31849;55.992;37.252;2022-12-18T03:38:24;9.33;;;5.40;;
46110;SDS011;31849;55.992;37.252;2022-12-18T03:43:34;7.87;;;4.80;;
46110;SDS011;31849;55.992;37.252;2022-12-18T03:48:43;8.23;;;4.80;;
46110;SDS011;31849;55.992;37.252;2022-12-18T03:53:51;9.57;;;5.23;;
46110;SDS011;31849;55.992;37.252;2022-12-18T03:58:59;10.63;;;5.60;;
46110;SDS011;31849;55.992;37.252;2022-12-18T04:04:05;9.77;;;5.30;;
46110;SDS011;31849;55.992;37.252;2022-12-18T04:09:11;8.90;;;5.33;;
46110;SDS011;31849;55.992;37.252;2022-12-18T04:14:16;8.68;;;5.00;;
46110;SDS011;31849;55.992;37.252;2022-12-18T04:19:20;10.20;;;6.03;;
46110;SDS011;31849;55.992;37.252;2022-12-18T04:24:24;10.27;;;6.03;;
46110;SDS011;31849;55.992;37.252;2022-12-18T04:29:28;11.27;;;6.07;;
46110;SDS011;31849;55.992;37.252;2022-12-18T04:34:32;8.57;;;5.47;;
46110;SDS011;31849;55.992;37.252;2022-12-18T04:39:36;8.40;;;5.10;;
46110;SDS011;31849;55.992;37.252;2022-12-18T04:44:41;10.50;;;5.83;;
46110;SDS011;31849;55.992;37.252;2022-12-18T04:49:44;14.57;;;5.60;;
46110;SDS011;31849;55.992;37.252;2022-12-18T04:54:48;13.50;;;5.73;;
46110;SDS011;31849;55.992;37.252;2022-12-18T04:59:53;7.50;;;5.10;;
46110;SDS011;31849;55.992;37.252;2022-12-18T05:04:57;9.77;;;5.67;;
46110;SDS011;31849;55.992;37.252;2022-12-18T05:10:00;9.97;;;5.67;;
46110;SDS011;31849;55.992;37.252;2022-12-18T05:15:06;10.13;;;6.10;;
46110;SDS011;31849;55.992;37.252;2022-12-18T05:20:11;10.00;;;5.47;;
46110;SDS011;31849;55.992;37.252;2022-12-18T05:25:14;10.43;;;5.60;;
46110;SDS011;31849;55.992;37.252;2022-12-18T05:30:19;9.70;;;5.20;;
46110;SDS011;31849;55.992;37.252;2022-12-18T05:35:24;8.60;;;5.67;;
46110;SDS011;31849;55.992;37.252;2022-12-18T05:40:28;8.35;;;5.68;;
46110;SDS011;31849;55.992;37.252;2022-12-18T05:45:36;8.40;;;4.93;;
46110;SDS011;31849;55.992;37.252;2022-12-18T05:50:40;9.30;;;5.00;;
46110;SDS011;31849;55.992;37.252;2022-12-18T05:55:47;9.67;;;4.90;;
46110;SDS011;31849;55.992;37.252;2022-12-18T06:00:52;9.53;;;5.27;;
46110;SDS011;31849;55.992;37.252;2022-12-18T06:05:56;7.77;;;4.43;;
46110;SDS011;31849;55.992;37.252;2022-12-18T06:10:59;9.23;;;5.90;;
46110;SDS011;31849;55.992;37.252;2022-12-18T06:16:05;9.32;;;4.80;;
46110;SDS011;31849;55.992;37.252;2022-12-18T06:21:09;9.53;;;5.40;;
46110;SDS011;31849;55.992;37.252;2022-12-18T06:26:13;8.55;;;5.07;;
46110;SDS011;31849;55.992;37.252;2022-12-18T06:31:19;9.03;;;5.57;;
46110;SDS011;31849;55.992;37.252;2022-12-18T06:36:23;8.90;;;5.63;;
46110;SDS011;31849;55.992;37.252;2022-12-18T06:41:26;12.60;;;5.23;;
46110;SDS011;31849;55.992;37.252;2022-12-18T06:46:31;10.53;;;5.33;;
46110;SDS011;31849;55.992;37.252;2022-12-18T06:51:35;11.93;;;5.40;;
46110;SDS011;31849;55.992;37.252;2022-12-18T06:56:39;7.17;;;4.70;;
46110;SDS011;31849;55.992;37.252;2022-12-18T07:01:44;6.33;;;3.77;;
46110;SDS011;31849;55.992;37.252;2022-12-18T07:06:48;9.03;;;4.83;;
46110;SDS011;31849;55.992;37.252;2022-12-18T07:11:51;7.60;;;4.53;;
46110;SDS011;31849;55.992;37.252;2022-12-18T07:16:57;8.27;;;4.68;;
46110;SDS011;31849;55.992;37.252;2022-12-18T07:22:02;9.00;;;5.00;;
46110;SDS011;31849;55.992;37.252;2022-12-18T07:27:07;10.10;;;5.63;;
46110;SDS011;31849;55.992;37.252;2022-12-18T07:32:12;6.97;;;3.80;;
46110;SDS011;31849;55.992;37.252;2022-12-18T07:37:16;7.93;;;4.83;;
46110;SDS011;31849;55.992;37.252;2022-12-18T07:42:19;8.80;;;4.65;;
46110;SDS011;31849;55.992;37.252;2022-12-18T07:47:36;10.50;;;5.00;;
46110;SDS011;31849;55.992;37.252;2022-12-18T07:52:40;8.27;;;4.60;;
46110;SDS011;31849;55.992;37.252;2022-12-18T07:57:43;8.20;;;4.90;;
46110;SDS011;31849;55.992;37.252;2022-12-18T08:02:56;7.80;;;4.50;;
46110;SDS011;31849;55.992;37.252;2022-12-18T08:08:00;6.07;;;4.03;;
46110;SDS011;31849;55.992;37.252;2022-12-18T08:13:03;8.02;;;4.13;;
46110;SDS011;31849;55.992;37.252;2022-12-18T08:18:08;6.07;;;3.80;;
46110;SDS011;31849;55.992;37.252;2022-12-18T08:23:15;7.13;;;4.03;;
46110;SDS011;31849;55.992;37.252;2022-12-18T08:28:18;7.17;;;3.90;;
46110;SDS011;31849;55.992;37.252;2022-12-18T08:33:23;6.83;;;4.10;;
46110;SDS011;31849;55.992;37.252;2022-12-18T08:38:27;6.03;;;3.57;;
46110;SDS011;31849;55.992;37.252;2022-12-18T08:43:31;7.47;;;3.83;;
46110;SDS011;31849;55.992;37.252;2022-12-18T08:48:54;8.07;;;3.77;;
46110;SDS011;31849;55.992;37.252;2022-12-18T08:53:58;5.53;;;3.60;;
46110;SDS011;31849;55.992;37.252;2022-12-18T08:59:02;6.00;;;3.60;;
46110;SDS011;31849;55.992;37.252;2022-12-18T09:04:07;5.83;;;3.70;;
46110;SDS011;31849;55.992;37.252;2022-12-18T09:09:11;6.63;;;3.30;;
46110;SDS011;31849;55.992;37.252;2022-12-18T09:14:14;6.00;;;3.80;;
46110;SDS011;31849;55.992;37.252;2022-12-18T09:19:19;8.43;;;4.40;;
46110;SDS011;31849;55.992;37.252;2022-12-18T09:24:23;6.88;;;4.00;;
46110;SDS011;31849;55.992;37.252;2022-12-18T09:29:26;5.73;;;3.33;;
46110;SDS011;31849;55.992;37.252;2022-12-18T09:34:32;7.87;;;3.77;;
46110;SDS011;31849;55.992;37.252;2022-12-18T09:39:35;5.10;;;3.10;;
46110;SDS011;31849;55.992;37.252;2022-12-18T09:44:40;6.57;;;3.90;;
46110;SDS011;31849;55.992;37.252;2022-12-18T09:49:50;6.80;;;3.70;;
46110;SDS011;31849;55.992;37.252;2022-12-18T09:54:58;8.03;;;3.93;;
46110;SDS011;31849;55.992;37.252;2022-12-18T10:00:08;5.63;;;3.40;;
46110;SDS011;31849;55.992;37.252;2022-12-18T10:05:24;7.07;;;3.70;;
46110;SDS011;31849;55.992;37.252;2022-12-18T10:10:40;6.77;;;3.87;;
46110;SDS011;31849;55.992;37.252;2022-12-18T10:15:52;7.20;;;3.67;;
46110;SDS011;31849;55.992;37.252;2022-12-18T10:21:05;5.90;;;3.53;;
46110;SDS011;31849;55.992;37.252;2022-12-18T10:26:16;6.43;;;3.50;;
46110;SDS011;31849;55.992;37.252;2022-12-18T10:31:22;10.87;;;3.67;;
46110;SDS011;31849;55.992;37.252;2022-12-18T10:36:28;5.78;;;3.47;;
46110;SDS011;31849;55.992;37.252;2022-12-18T10:41:32;6.30;;;3.50;;
46110;SDS011;31849;55.992;37.252;2022-12-18T10:46:36;6.07;;;3.40;;
46110;SDS011;31849;55.992;37.252;2022-12-18T10:51:42;5.28;;;3.20;;
46110;SDS011;31849;55.992;37.252;2022-12-18T10:56:46;5.37;;;2.97;;
46110;SDS011;31849;55.992;37.252;2022-12-18T11:01:50;4.07;;;2.67;;
46110;SDS011;31849;55.992;37.252;2022-12-18T11:06:59;5.83;;;3.53;;
46110;SDS011;31849;55.992;37.252;2022-12-18T11:12:08;6.50;;;3.58;;
46110;SDS011;31849;55.992;37.252;2022-12-18T11:17:19;5.03;;;3.10;;
46110;SDS011;31849;55.992;37.252;2022-12-18T11:22:28;5.53;;;2.67;;
46110;SDS011;31849;55.992;37.252;2022-12-18T11:27:33;6.13;;;3.20;;
46110;SDS011;31849;55.992;37.252;2022-12-18T11:32:37;4.83;;;2.63;;
46110;SDS011;31849;55.992;37.252;2022-12-18T11:37:46;6.13;;;3.20;;
46110;SDS011;31849;55.992;37.252;2022-12-18T11:42:54;7.13;;;3.37;;
46110;SDS011;31849;55.992;37.252;2022-12-18T11:48:02;8.00;;;3.53;;
46110;SDS011;31849;55.992;37.252;2022-12-18T11:53:12;7.07;;;3.60;;
46110;SDS011;31849;55.992;37.252;2022-12-18T11:58:18;8.73;;;4.00;;
46110;SDS011;31849;55.992;37.252;2022-12-18T12:03:42;8.63;;;4.43;;
46110;SDS011;31849;55.992;37.252;2022-12-18T12:09:03;11.70;;;4.67;;
46110;SDS011;31849;55.992;37.252;2022-12-18T12:14:19;14.37;;;6.47;;
46110;SDS011;31849;55.992;37.252;2022-12-18T12:19:35;15.47;;;6.40;;
46110;SDS011;31849;55.992;37.252;2022-12-18T12:24:51;12.80;;;6.10;;
46110;SDS011;31849;55.992;37.252;2022-12-18T12:30:06;15.73;;;6.57;;
46110;SDS011;31849;55.992;37.252;2022-12-18T12:35:14;15.57;;;6.67;;
46110;SDS011;31849;55.992;37.252;2022-12-18T12:40:29;16.73;;;6.67;;
46110;SDS011;31849;55.992;37.252;2022-12-18T12:45:57;18.00;;;8.37;;
46110;SDS011;31849;55.992;37.252;2022-12-18T12:51:04;19.43;;;7.77;;
46110;SDS011;31849;55.992;37.252;2022-12-18T12:56:15;17.63;;;7.57;;
46110;SDS011;31849;55.992;37.252;2022-12-18T13:01:24;15.03;;;6.73;;
46110;SDS011;31849;55.992;37.252;2022-12-18T13:06:38;12.65;;;5.80;;
46110;SDS011;31849;55.992;37.252;2022-12-18T13:11:48;17.17;;;7.20;;
46110;SDS011;31849;55.992;37.252;2022-12-18T13:17:16;13.40;;;6.20;;
46110;SDS011;31849;55.992;37.252;2022-12-18T13:22:33;10.80;;;5.20;;
46110;SDS011;31849;55.992;37.252;2022-12-18T13:27:55;11.70;;;5.23;;
46110;SDS011;31849;55.992;37.252;2022-12-18T13:44:38;7.90;;;4.10;;
46110;SDS011;31849;55.992;37.252;2022-12-18T13:49:43;9.93;;;4.73;;
46110;SDS011;31849;55.992;37.252;2022-12-18T13:54:48;7.93;;;4.00;;
46110;SDS011;31849;55.992;37.252;2022-12-18T13:59:56;8.80;;;4.47;;
46110;SDS011;31849;55.992;37.252;2022-12-18T14:05:00;7.43;;;4.00;;
46110;SDS011;31849;55.992;37.252;2022-12-18T14:10:11;8.60;;;4.32;;
46110;SDS011;31849;55.992;37.252;2022-12-18T14:15:40;8.20;;;3.80;;
46110;SDS011;31849;55.992;37.252;2022-12-18T14:20:46;7.17;;;3.70;;
46110;SDS011;31849;55.992;37.252;2022-12-18T14:25:53;7.57;;;4.13;;
46110;SDS011;31849;55.992;37.252;2022-12-18T14:31:15;8.50;;;4.57;;
46110;SDS011;31849;55.992;37.252;2022-12-18T14:36:21;8.50;;;4.87;;
46110;SDS011;31849;55.992;37.252;2022-12-18T14:41:26;7.30;;;4.03;;
46110;SDS011;31849;55.992;37.252;2022-12-18T14:46:34;9.88;;;4.63;;
46110;SDS011;31849;55.992;37.252;2022-12-18T14:51:39;8.33;;;4.67;;
46110;SDS011;31849;55.992;37.252;2022-12-18T14:56:51;8.03;;;4.60;;
46110;SDS011;31849;55.992;37.252;2022-12-18T15:02:03;8.17;;;4.90;;
46110;SDS011;31849;55.992;37.252;2022-12-18T15:07:18;8.57;;;4.67;;
46110;SDS011;31849;55.992;37.252;2022-12-18T15:12:26;7.63;;;4.67;;
46110;SDS011;31849;55.992;37.252;2022-12-18T15:17:37;11.23;;;4.83;;
46110;SDS011;31849;55.992;37.252;2022-12-18T15:22:41;10.27;;;5.23;;
46110;SDS011;31849;55.992;37.252;2022-12-18T15:27:45;9.80;;;4.90;;
46110;SDS011;31849;55.992;37.252;2022-12-18T15:32:55;9.40;;;4.70;;
46110;SDS011;31849;55.992;37.252;2022-12-18T15:38:19;16.87;;;5.80;;
46110;SDS011;31849;55.992;37.252;2022-12-18T15:43:24;9.27;;;5.00;;
46110;SDS011;31849;55.992;37.252;2022-12-18T15:48:40;10.10;;;4.60;;
46110;SDS011;31849;55.992;37.252;2022-12-18T15:53:45;10.23;;;5.10;;
46110;SDS011;31849;55.992;37.252;2022-12-18T15:58:50;9.60;;;5.47;;
46110;SDS011;31849;55.992;37.252;2022-12-18T16:03:55;9.77;;;4.90;;
46110;SDS011;31849;55.992;37.252;2022-12-18T16:08:59;10.30;;;5.00;;
46110;SDS011;31849;55.992;37.252;2022-12-18T16:14:02;10.43;;;5.43;;
46110;SDS011;31849;55.992;37.252;2022-12-18T16:19:09;9.67;;;5.23;;
46110;SDS011;31849;55.992;37.252;2022-12-18T16:24:13;10.10;;;4.90;;
46110;SDS011;31849;55.992;37.252;2022-12-18T16:29:19;10.13;;;4.90;;
46110;SDS011;31849;55.992;37.252;2022-12-18T16:34:30;9.53;;;5.23;;
46110;SDS011;31849;55.992;37.252;2022-12-18T16:39:36;10.97;;;5.63;;
46110;SDS011;31849;55.992;37.252;2022-12-18T16:44:41;10.10;;;5.10;;
46110;SDS011;31849;55.992;37.252;2022-12-18T16:49:47;12.48;;;5.15;;
46110;SDS011;31849;55.992;37.252;2022-12-18T16:54:52;10.70;;;4.90;;
46110;SDS011;31849;55.992;37.252;2022-12-18T16:59:56;12.25;;;5.80;;
46110;SDS011;31849;55.992;37.252;2022-12-18T17:05:07;10.73;;;6.00;;
46110;SDS011;31849;55.992;37.252;2022-12-18T17:10:11;13.40;;;6.17;;
46110;SDS011;31849;55.992;37.252;2022-12-18T17:15:15;10.07;;;5.37;;
46110;SDS011;31849;55.992;37.252;2022-12-18T17:20:21;12.67;;;6.20;;
46110;SDS011;31849;55.992;37.252;2022-12-18T17:25:25;11.93;;;5.93;;
46110;SDS011;31849;55.992;37.252;2022-12-18T17:30:29;12.40;;;6.03;;
46110;SDS011;31849;55.992;37.252;2022-12-18T17:35:34;13.60;;;6.00;;
46110;SDS011;31849;55.992;37.252;2022-12-18T17:40:38;15.23;;;7.10;;
46110;SDS011;31849;55.992;37.252;2022-12-18T17:45:47;14.47;;;6.43;;
46110;SDS011;31849;55.992;37.252;2022-12-18T17:50:52;17.40;;;7.97;;
46110;SDS011;31849;55.992;37.252;2022-12-18T17:55:55;14.53;;;6.97;;
46110;SDS011;31849;55.992;37.252;2022-12-18T18:01:02;16.23;;;7.43;;
46110;SDS011;31849;55.992;37.252;2022-12-18T18:06:08;15.83;;;7.57;;
46110;SDS011;31849;55.992;37.252;2022-12-18T18:11:13;17.97;;;7.87;;
46110;SDS011;31849;55.992;37.252;2022-12-18T18:16:36;15.33;;;7.40;;
46110;SDS011;31849;55.992;37.252;2022-12-18T18:21:43;18.13;;;7.23;;
46110;SDS011;31849;55.992;37.252;2022-12-18T18:26:48;22.37;;;9.10;;
46110;SDS011;31849;55.992;37.252;2022-12-18T18:31:52;17.90;;;7.78;;
46110;SDS011;31849;55.992;37.252;2022-12-18T18:36:57;20.88;;;8.23;;
46110;SDS011;31849;55.992;37.252;2022-12-18T18:42:01;19.33;;;8.83;;
46110;SDS011;31849;55.992;37.252;2022-12-18T18:47:05;26.23;;;9.93;;
46110;SDS011;31849;55.992;37.252;2022-12-18T18:52:14;20.60;;;8.10;;
46110;SDS011;31849;55.992;37.252;2022-12-18T18:57:18;23.60;;;9.53;;
46110;SDS011;31849;55.992;37.252;2022-12-18T19:02:25;22.27;;;9.03;;
46110;SDS011;31849;55.992;37.252;2022-12-18T19:07:30;20.00;;;8.52;;
46110;SDS011;31849;55.992;37.252;2022-12-18T19:12:34;19.67;;;7.50;;
46110;SDS011;31849;55.992;37.252;2022-12-18T19:17:55;24.97;;;10.00;;
46110;SDS011;31849;55.992;37.252;2022-12-18T19:23:00;25.13;;;9.53;;
46110;SDS011;31849;55.992;37.252;2022-12-18T19:28:03;20.77;;;9.20;;
46110;SDS011;31849;55.992;37.252;2022-12-18T19:33:13;23.63;;;9.90;;
46110;SDS011;31849;55.992;37.252;2022-12-18T19:38:38;24.17;;;10.63;;
46110;SDS011;31849;55.992;37.252;2022-12-18T19:43:46;24.20;;;10.23;;
46110;SDS011;31849;55.992;37.252;2022-12-18T19:48:50;27.20;;;10.57;;
46110;SDS011;31849;55.992;37.252;2022-12-18T19:53:56;30.25;;;11.35;;
46110;SDS011;31849;55.992;37.252;2022-12-18T19:59:02;23.30;;;10.00;;
46110;SDS011;31849;55.992;37.252;2022-12-18T20:04:06;25.75;;;9.70;;
46110;SDS011;31849;55.992;37.252;2022-12-18T20:09:11;23.13;;;9.17;;
46110;SDS011;31849;55.992;37.252;2022-12-18T20:14:15;22.87;;;9.97;;
46110;SDS011;31849;55.992;37.252;2022-12-18T20:19:25;23.37;;;9.73;;
46110;SDS011;31849;55.992;37.252;2022-12-18T20:24:32;24.27;;;9.50;;
46110;SDS011;31849;55.992;37.252;2022-12-18T20:29:36;23.87;;;9.70;;
46110;SDS011;31849;55.992;37.252;2022-12-18T20:34:39;20.42;;;9.00;;
46110;SDS011;31849;55.992;37.252;2022-12-18T20:39:44;20.90;;;8.87;;
46110;SDS011;31849;55.992;37.252;2022-12-18T20:44:48;13.43;;;7.33;;
46110;SDS011;31849;55.992;37.252;2022-12-18T20:49:52;17.37;;;7.53;;
46110;SDS011;31849;55.992;37.252;2022-12-18T20:54:58;14.05;;;6.97;;
46110;SDS011;31849;55.992;37.252;2022-12-18T21:00:02;13.33;;;6.87;;
46110;SDS011;31849;55.992;37.252;2022-12-18T21:05:07;13.67;;;6.47;;
46110;SDS011;31849;55.992;37.252;2022-12-18T21:10:12;14.43;;;6.75;;
46110;SDS011;31849;55.992;37.252;2022-12-18T21:15:15;12.00;;;6.40;;
46110;SDS011;31849;55.992;37.252;2022-12-18T21:20:28;12.80;;;6.13;;
46110;SDS011;31849;55.992;37.252;2022-12-18T21:25:34;9.00;;;5.28;;
46110;SDS011;31849;55.992;37.252;2022-12-18T21:30:37;11.03;;;5.93;;
46110;SDS011;31849;55.992;37.252;2022-12-18T21:35:41;11.20;;;5.80;;
46110;SDS011;31849;55.992;37.252;2022-12-18T21:40:46;11.27;;;5.47;;
46110;SDS011;31849;55.992;37.252;2022-12-18T21:45:50;10.30;;;5.30;;
46110;SDS011;31849;55.992;37.252;2022-12-18T21:50:54;9.33;;;5.23;;
46110;SDS011;31849;55.992;37.252;2022-12-18T21:55:59;11.15;;;5.25;;
46110;SDS011;31849;55.992;37.252;2022-12-18T22:01:02;10.23;;;5.77;;
46110;SDS011;31849;55.992;37.252;2022-12-18T22:06:06;10.32;;;5.88;;
46110;SDS011;31849;55.992;37.252;2022-12-18T22:11:11;10.03;;;5.43;;
46110;SDS011;31849;55.992;37.252;2022-12-18T22:16:16;8.83;;;4.37;;
46110;SDS011;31849;55.992;37.252;2022-12-18T22:21:21;8.40;;;4.50;;
46110;SDS011;31849;55.992;37.252;2022-12-18T22:26:32;8.70;;;4.80;;
46110;SDS011;31849;55.992;37.252;2022-12-18T22:31:40;8.70;;;4.43;;
46110;SDS011;31849;55.992;37.252;2022-12-18T22:36:45;9.18;;;4.72;;
46110;SDS011;31849;55.992;37.252;2022-12-18T22:41:51;6.70;;;3.73;;
46110;SDS011;31849;55.992;37.252;2022-12-18T22:46:55;6.77;;;3.27;;
46110;SDS011;31849;55.992;37.252;2022-12-18T22:52:08;9.60;;;4.50;;
46110;SDS011;31849;55.992;37.252;2022-12-18T22:57:13;8.15;;;4.18;;
46110;SDS011;31849;55.992;37.252;2022-12-18T23:02:17;8.67;;;3.90;;
46110;SDS011;31849;55.992;37.252;2022-12-18T23:07:21;8.23;;;3.22;;
46110;SDS011;31849;55.992;37.252;2022-12-18T23:12:26;8.10;;;4.00;;
46110;SDS011;31849;55.992;37.252;2022-12-18T23:17:30;7.87;;;4.10;;
46110;SDS011;31849;55.992;37.252;2022-12-18T23:22:33;9.20;;;4.03;;
46110;SDS011;31849;55.992;37.252;2022-12-18T23:27:38;7.13;;;3.97;;
46110;SDS011;31849;55.992;37.252;2022-12-18T23:32:42;6.83;;;3.60;;
46110;SDS011;31849;55.992;37.252;2022-12-18T23:37:46;9.77;;;4.20;;
46110;SDS011;31849;55.992;37.252;2022-12-18T23:43:00;8.17;;;3.80;;
46110;SDS011;31849;55.992;37.252;2022-12-18T23:48:04;7.03;;;3.63;;
46110;SDS011;31849;55.992;37.252;2022-12-18T23:53:08;8.57;;;3.83;;
46110;SDS011;31849;55.992;37.252;2022-12-18T23:58:16;9.02;;;3.83;;
